WetterOnline ( https://www.wetteronline.de )

Wetter aktuell San Zeno-San Giuseppe

Aktuelles Wetter: Istrana (46m)

6-stündlich | Neueste Meldungen
Ortszeit Temperatur Wetter
Mo, 22.04. 14:00 10.8° C bewölkt
Mo, 22.04. 8:00 8.0° C wolkig
Mo, 22.04. 2:00 8.6° C leichter Regen
So, 21.04. 20:00 10.6° C leicht bewölkt
So, 21.04. 14:00 10.8° C wolkig
So, 21.04. 8:00 7.6° C leicht bewölkt
So, 21.04. 2:00 6.4° C leicht bewölkt
Sa, 20.04. 20:00 11.8° C leicht bewölkt
Ortszeit Temperatur Wetter
Mo, 22.04. 16:00 7.8° C leichter Regen
Mo, 22.04. 15:00 10.0° C leichter Regen
Mo, 22.04. 14:00 10.8° C bewölkt
Mo, 22.04. 13:00 11.0° C bedeckt
Mo, 22.04. 12:00 11.0° C bedeckt
Mo, 22.04. 11:00 11.0° C wolkig
Mo, 22.04. 10:00 10.4° C wolkig
Ortszeit Relative Feuchte Sichtweite
Mo, 22.04. 14:00 55% 15 km
Mo, 22.04. 8:00 71% 15 km
Mo, 22.04. 2:00 70% 15 km
So, 21.04. 20:00 61% 25 km
So, 21.04. 14:00 51% 15 km
So, 21.04. 8:00 73% 50 km
So, 21.04. 2:00 83% 35 km
Sa, 20.04. 20:00 63% 30 km
Ortszeit Relative Feuchte Sichtweite
Mo, 22.04. 16:00 76% 8 km
Mo, 22.04. 15:00 58% 10 km
Mo, 22.04. 14:00 55% 15 km
Mo, 22.04. 13:00 49% 20 km
Mo, 22.04. 12:00 48% 30 km
Mo, 22.04. 11:00 52% 20 km
Mo, 22.04. 10:00 61% 20 km
Ortszeit Niederschlagsmenge Niederschlagsart
Mo, 22.04. 14:00 0.0 l/m2 in 6 Std. -
Mo, 22.04. 8:00 0.0 l/m2 in 12 Std. Regen
Mo, 22.04. 2:00 0.0 l/m2 in 6 Std. Regen
So, 21.04. 20:00 0.0 l/m2 in 12 Std. Regen
So, 21.04. 14:00 0.0 l/m2 in 6 Std. -
So, 21.04. 8:00 0.0 l/m2 in 12 Std. -
So, 21.04. 2:00 0.0 l/m2 in 6 Std. -
Sa, 20.04. 20:00 0.0 l/m2 in 12 Std. Gewitter
Ortszeit Niederschlagsmenge Niederschlagsart
Mo, 22.04. 16:00 keine Meldung -
Mo, 22.04. 15:00 keine Meldung -
Mo, 22.04. 14:00 keine Meldung -
Mo, 22.04. 13:00 keine Meldung -
Mo, 22.04. 12:00 keine Meldung -
Mo, 22.04. 11:00 keine Meldung -
Mo, 22.04. 10:00 keine Meldung -
Ortszeit Stärke Spitze Richtung
km/h Bft. km/h Grad Sektor
Mo, 22.04. 14:00 28 4 - 60° NO
Mo, 22.04. 8:00 15 3 - 70° O
Mo, 22.04. 2:00 19 3 - 90° O
So, 21.04. 20:00 6 1 - 50° NO
So, 21.04. 14:00 22 4 - 300° NW
So, 21.04. 8:00 11 2 - 50° NO
So, 21.04. 2:00 7 2 - 330° NW
Sa, 20.04. 20:00 0 0 - - -
Ortszeit Stärke Spitze Richtung
km/h Bft. km/h Grad Sektor
Mo, 22.04. 16:00 28 4 - 80° O
Mo, 22.04. 15:00 28 4 - 70° O
Mo, 22.04. 14:00 28 4 - 60° NO
Mo, 22.04. 13:00 24 4 - 90° O
Mo, 22.04. 12:00 30 5 - 90° O
Mo, 22.04. 11:00 28 4 - 90° O
Mo, 22.04. 10:00 22 4 - 80° O
Ortszeit Untergrenze Bedeckung Gattung
total tief tief mittel hoch
Mo, 22.04. 14:00 750 m 8/8 4/8 Cu Ac -
Mo, 22.04. 8:00 2100 m 8/8 4/8 - Ac Ci
Mo, 22.04. 2:00 1050 m 7/8 7/8 Sc - -
So, 21.04. 20:00 2700 m 6/8 3/8 - Ac Cs
So, 21.04. 14:00 300 m 7/8 4/8 Cb As -
So, 21.04. 8:00 6000 m 2/8 2/8 - - Ci
So, 21.04. 2:00 3000 m 2/8 2/8 - Ac -
Sa, 20.04. 20:00 2100 m 7/8 3/8 - Ac Ci
Ortszeit Bedeckungsgrad in Achtel und Wolkenuntergrenze
Mo, 22.04. 16:00 4(600m) 5(900m)
Mo, 22.04. 15:00 4(600m) 5(1200m)
Mo, 22.04. 14:00 4(750m) 5(2100m)
Mo, 22.04. 13:00 2(600m) 6(1200m)
Mo, 22.04. 12:00 1(750m) 7(2700m)
Mo, 22.04. 11:00 8(2700m)
Mo, 22.04. 10:00 5(1800m) 5(3600m)
Ortszeit Luftdruck NN (hPa) Tendenz (hPa in 3 Std.)
Mo, 22.04. 14:00 1014 - 0,6
Mo, 22.04. 8:00 1015 - 0,2
Mo, 22.04. 2:00 1015 + 0,2
So, 21.04. 20:00 1014 - 0,1
So, 21.04. 14:00 1014 - 0,4
So, 21.04. 8:00 1015 + 0,3
So, 21.04. 2:00 1015 + 0,5
Sa, 20.04. 20:00 1013 + 2,3
Ortszeit Luftdruck NN (hPa) Tendenz (hPa in 3 Std.)
Mo, 22.04. 16:00 1014 - 0,8
Mo, 22.04. 15:00 1014 - 0,7
Mo, 22.04. 14:00 1014 - 0,6
Mo, 22.04. 13:00 1015 + 0,2
Mo, 22.04. 12:00 1015 - 0,1
Mo, 22.04. 11:00 1015 - 0,3
Mo, 22.04. 10:00 1015 + 0,1
Ortszeit Schneehöhe (cm)
Mo, 22.04. 14:00 -
Mo, 22.04. 8:00 0
Mo, 22.04. 2:00 -
So, 21.04. 20:00 -
So, 21.04. 14:00 -
So, 21.04. 8:00 0
So, 21.04. 2:00 -
Sa, 20.04. 20:00 -
Ortszeit Schneehöhe (cm)
Mo, 22.04. 16:00 -
Mo, 22.04. 15:00 -
Mo, 22.04. 14:00 -
Mo, 22.04. 13:00 -
Mo, 22.04. 12:00 -
Mo, 22.04. 11:00 -
Mo, 22.04. 10:00 -
Link zu dieser Seite / Seite empfehlen

Das Wetter in ...